Minton, Canada
Current Conditions -  °F | °C
As of 3:55 AM on Sunday 23 Nov 2014 (Local Time) from KD50 Reporting Station
Overcast Overcast  
Wind Chill: 14°   Ceiling: 4100
Heat Index: 28°   Visibility: 10mi
Dew Point: 21°   Wind: 25mph
Humidity: 74%   Direction: 280°W
Pressure: 29.34"   Gusts: 38mph
Location:  49.17°N, 104.58°W
Report Text: KD50 230955Z AUTO 28022G33KT 10SM SCT022 OVC041 M02/M06 A2934 RMK AO2
Loading
Personal Weather Stations






























Interactive Weather Map New forecast layout! Learn more

10-Day Weather Forecast

Advertisements
Track Severe Weather on mobile